createdAt,value
2019-02-27T00:00:34.657Z,1.46
2019-02-27T00:01:34.648Z,1.43
2019-02-27T00:02:34.643Z,1.44
2019-02-27T00:03:34.670Z,1.42
2019-02-27T00:04:35.561Z,1.51
2019-02-27T00:05:34.634Z,1.55
2019-02-27T00:06:34.619Z,1.47
2019-02-27T00:07:34.621Z,1.52
2019-02-27T00:08:34.661Z,1.50
2019-02-27T00:09:34.608Z,1.50
2019-02-27T00:10:36.906Z,1.39
2019-02-27T00:11:34.596Z,1.44
2019-02-27T00:12:34.592Z,1.43
2019-02-27T00:13:34.620Z,1.26
2019-02-27T00:14:34.580Z,1.33
2019-02-27T00:15:37.754Z,1.28
2019-02-27T00:16:34.568Z,1.28
2019-02-27T00:17:34.567Z,1.19
2019-02-27T00:18:34.563Z,1.22
2019-02-27T00:19:34.598Z,1.34
2019-02-27T00:20:36.684Z,1.40
2019-02-27T00:21:34.550Z,1.37
2019-02-27T00:22:34.546Z,1.40
2019-02-27T00:23:34.532Z,1.34
2019-02-27T00:24:34.566Z,1.40
2019-02-27T00:25:36.115Z,1.32
2019-02-27T00:26:34.516Z,1.40
2019-02-27T00:27:34.521Z,1.32
2019-02-27T00:28:34.504Z,1.28
2019-02-27T00:29:34.536Z,1.28
2019-02-27T00:30:37.903Z,1.16
2019-02-27T00:31:34.489Z,1.19
2019-02-27T00:32:34.484Z,1.21
2019-02-27T00:33:34.488Z,1.18
2019-02-27T00:34:34.514Z,1.36
2019-02-27T00:35:38.642Z,1.42
2019-02-27T00:36:34.462Z,1.39
2019-02-27T00:37:34.457Z,1.40
2019-02-27T00:38:34.452Z,1.32
2019-02-27T00:39:34.450Z,1.36
2019-02-27T00:40:38.526Z,1.39
2019-02-27T00:41:34.441Z,1.32
2019-02-27T00:42:34.433Z,1.36
2019-02-27T00:43:34.424Z,1.32
2019-02-27T00:44:34.908Z,1.36
2019-02-27T00:45:34.417Z,1.37
2019-02-27T00:46:34.436Z,1.34
2019-02-27T00:47:34.405Z,1.28
2019-02-27T00:48:34.396Z,1.33
2019-02-27T00:49:34.542Z,1.42
2019-02-27T00:50:34.388Z,1.32
2019-02-27T00:51:34.414Z,1.32
2019-02-27T00:52:34.378Z,1.42
2019-02-27T00:53:34.374Z,1.42
2019-02-27T00:54:34.400Z,1.40
2019-02-27T00:55:38.559Z,1.39
2019-02-27T00:56:34.354Z,1.43
2019-02-27T00:57:34.358Z,1.39
2019-02-27T00:58:34.342Z,1.54
2019-02-27T00:59:34.370Z,1.51
2019-02-27T01:00:38.909Z,1.47
2019-02-27T01:01:34.334Z,1.46
2019-02-27T01:02:34.326Z,1.46
2019-02-27T01:03:34.312Z,1.50
2019-02-27T01:04:35.184Z,1.51
2019-02-27T01:05:34.302Z,1.46
2019-02-27T01:06:34.301Z,1.42
2019-02-27T01:07:34.288Z,1.46
2019-02-27T01:08:34.284Z,1.44
2019-02-27T01:09:34.316Z,1.52
2019-02-27T01:10:34.272Z,1.51
2019-02-27T01:11:34.270Z,1.57
2019-02-27T01:12:34.269Z,1.64
2019-02-27T01:13:34.260Z,1.62
2019-02-27T01:14:36.925Z,1.65
2019-02-27T01:15:34.251Z,1.57
2019-02-27T01:16:34.279Z,1.46
2019-02-27T01:17:34.241Z,1.50
2019-02-27T01:18:34.245Z,1.47
2019-02-27T01:19:38.470Z,1.44
2019-02-27T01:20:34.226Z,1.42
2019-02-27T01:21:34.217Z,1.39
2019-02-27T01:22:34.215Z,1.43
2019-02-27T01:23:34.206Z,1.42
2019-02-27T01:24:34.233Z,1.54
2019-02-27T01:25:34.192Z,1.46
2019-02-27T01:26:34.189Z,1.52
2019-02-27T01:27:37.934Z,1.58
2019-02-27T01:28:34.178Z,1.61
2019-02-27T01:29:34.209Z,1.71
2019-02-27T01:30:34.200Z,1.68
2019-02-27T01:31:34.161Z,1.72
2019-02-27T01:32:34.152Z,1.65
2019-02-27T01:33:37.759Z,1.68
2019-02-27T01:34:34.146Z,1.65
2019-02-27T01:35:34.170Z,1.55
2019-02-27T01:36:34.132Z,1.57
2019-02-27T01:37:34.129Z,1.54
2019-02-27T01:38:37.644Z,1.47
2019-02-27T01:39:34.116Z,1.37
2019-02-27T01:40:34.136Z,1.40
2019-02-27T01:41:34.132Z,1.24
2019-02-27T01:42:34.100Z,1.24
2019-02-27T01:43:34.090Z,1.24
2019-02-27T01:44:34.090Z,1.12
2019-02-27T01:45:34.080Z,1.12
2019-02-27T01:46:34.113Z,1.06
2019-02-27T01:47:36.118Z,1.08
2019-02-27T01:48:34.074Z,1.10
2019-02-27T01:49:34.055Z,1.16
2019-02-27T01:50:34.091Z,1.08
2019-02-27T01:51:34.044Z,1.15
2019-02-27T01:52:34.600Z,1.04
2019-02-27T01:53:34.033Z,1.00
2019-02-27T01:54:34.028Z,0.97
2019-02-27T01:55:34.064Z,0.98
2019-02-27T01:56:34.022Z,1.06
2019-02-27T01:57:34.148Z,0.98
2019-02-27T01:58:34.014Z,0.92
2019-02-27T01:59:34.004Z,1.01
2019-02-27T02:00:34.028Z,1.00
2019-02-27T02:01:33.998Z,0.90
2019-02-27T02:02:34.949Z,0.82
2019-02-27T02:03:33.975Z,0.82
2019-02-27T02:04:33.975Z,0.80
2019-02-27T02:05:34.025Z,0.72
2019-02-27T02:06:33.965Z,0.68
2019-02-27T02:07:33.957Z,0.67
2019-02-27T02:08:33.947Z,0.65
2019-02-27T02:09:33.968Z,0.61
2019-02-27T02:10:33.981Z,0.75
2019-02-27T02:11:34.998Z,0.58
2019-02-27T02:12:33.922Z,0.61
2019-02-27T02:13:33.926Z,0.60
2019-02-27T02:14:33.912Z,0.57
2019-02-27T02:15:33.941Z,0.62
2019-02-27T02:16:34.414Z,0.67
2019-02-27T02:17:33.898Z,0.71
2019-02-27T02:18:33.893Z,0.78
2019-02-27T02:19:33.888Z,0.76
2019-02-27T02:20:33.908Z,0.67
2019-02-27T02:21:34.360Z,0.76
2019-02-27T02:22:33.905Z,0.67
2019-02-27T02:23:33.860Z,0.65
2019-02-27T02:24:33.856Z,0.58
2019-02-27T02:25:33.847Z,0.60
2019-02-27T02:26:35.054Z,0.62
2019-02-27T02:27:33.870Z,0.57
2019-02-27T02:28:33.888Z,0.51
2019-02-27T02:29:33.848Z,0.39
2019-02-27T02:30:33.848Z,0.42
2019-02-27T02:31:33.873Z,0.39
2019-02-27T02:32:33.828Z,0.41
2019-02-27T02:33:33.833Z,0.31
2019-02-27T02:34:39.829Z,0.27
2019-02-27T02:35:33.856Z,0.34
2019-02-27T02:36:33.846Z,0.25
2019-02-27T02:37:37.007Z,0.15
2019-02-27T02:38:33.794Z,0.18
2019-02-27T02:39:33.788Z,0.25
2019-02-27T02:40:33.781Z,0.27
2019-02-27T02:41:33.818Z,0.30
2019-02-27T02:42:33.810Z,0.33
2019-02-27T02:43:40.252Z,0.33
2019-02-27T02:44:33.761Z,0.34
2019-02-27T02:45:33.848Z,0.36
2019-02-27T02:46:33.745Z,0.39
2019-02-27T02:47:33.772Z,0.38
2019-02-27T02:48:33.732Z,0.39
2019-02-27T02:49:33.730Z,0.36
2019-02-27T02:50:33.722Z,0.34
2019-02-27T02:51:33.717Z,0.45
2019-02-27T02:52:40.171Z,0.39
2019-02-27T02:53:33.708Z,0.48
2019-02-27T02:54:37.531Z,0.46
2019-02-27T02:55:33.697Z,0.41
2019-02-27T02:56:33.693Z,0.41
2019-02-27T02:57:36.260Z,0.36
2019-02-27T02:58:33.682Z,0.38
2019-02-27T02:59:33.670Z,0.36
2019-02-27T03:00:37.932Z,0.42
2019-02-27T03:01:33.650Z,0.31
2019-02-27T03:02:33.650Z,0.28
2019-02-27T03:03:37.271Z,0.20
2019-02-27T03:04:33.641Z,0.13
2019-02-27T03:05:33.628Z,0.10
2019-02-27T03:06:35.015Z,0.10
2019-02-27T03:07:33.616Z,0.09
2019-02-27T03:08:33.649Z,0.09
2019-02-27T03:09:33.615Z,0.06
2019-02-27T03:10:33.600Z,0.10
2019-02-27T03:11:33.592Z,0.13
2019-02-27T03:12:33.587Z,0.13
2019-02-27T03:13:33.624Z,0.23
2019-02-27T03:14:33.581Z,0.39
2019-02-27T03:15:33.567Z,0.39
2019-02-27T03:16:33.558Z,0.57
2019-02-27T03:17:33.557Z,0.65
2019-02-27T03:18:33.586Z,0.78
2019-02-27T03:19:33.546Z,0.70
2019-02-27T03:20:33.538Z,0.60
2019-02-27T03:21:33.558Z,0.67
2019-02-27T03:22:40.356Z,0.67
2019-02-27T03:23:33.558Z,0.68
2019-02-27T03:24:33.516Z,0.61
2019-02-27T03:25:40.292Z,0.60
2019-02-27T03:26:33.499Z,0.61
2019-02-27T03:27:33.496Z,0.49
2019-02-27T03:28:33.489Z,0.41
2019-02-27T03:29:33.594Z,0.41
2019-02-27T03:30:36.234Z,0.43
2019-02-27T03:31:33.468Z,0.45
2019-02-27T03:32:41.295Z,0.36
2019-02-27T03:33:33.466Z,0.30
2019-02-27T03:34:33.499Z,0.25
2019-02-27T03:35:33.444Z,0.42
2019-02-27T03:36:36.042Z,0.36
2019-02-27T03:37:33.430Z,0.39
2019-02-27T03:38:33.465Z,0.39
2019-02-27T03:39:34.921Z,0.30
2019-02-27T03:40:33.415Z,0.38
2019-02-27T03:41:33.409Z,0.39
2019-02-27T03:42:34.215Z,0.41
2019-02-27T03:43:33.397Z,0.53
2019-02-27T03:44:33.424Z,0.49
2019-02-27T03:45:33.389Z,0.60
2019-02-27T03:46:33.381Z,0.61
2019-02-27T03:47:33.370Z,0.58
2019-02-27T03:48:33.360Z,0.61
2019-02-27T03:49:39.647Z,0.58
2019-02-27T03:50:33.386Z,0.58
2019-02-27T03:51:33.346Z,0.48
2019-02-27T03:52:36.329Z,0.58
2019-02-27T03:53:33.336Z,0.49
2019-02-27T03:54:33.376Z,0.45
2019-02-27T03:55:33.322Z,0.28
2019-02-27T03:56:33.353Z,0.25
2019-02-27T03:57:33.307Z,0.13
2019-02-27T03:58:33.302Z,0.13
2019-02-27T03:59:33.335Z,0.09
2019-02-27T04:00:33.292Z,0.13
2019-02-27T04:01:33.282Z,0.10
2019-02-27T04:02:33.318Z,0.15
2019-02-27T04:03:34.037Z,0.18
2019-02-27T04:04:33.269Z,0.16
2019-02-27T04:05:33.297Z,0.25
2019-02-27T04:06:33.257Z,0.27
2019-02-27T04:07:33.247Z,0.41
2019-02-27T04:08:33.279Z,0.30
2019-02-27T04:09:33.407Z,0.27
2019-02-27T04:10:33.265Z,0.25
2019-02-27T04:11:33.228Z,0.36
2019-02-27T04:12:33.219Z,0.33
2019-02-27T04:13:33.210Z,0.24
2019-02-27T04:14:36.919Z,0.15
2019-02-27T04:15:33.235Z,0.20
2019-02-27T04:16:33.243Z,0.27
2019-02-27T04:17:33.183Z,0.28
2019-02-27T04:18:33.214Z,0.28
2019-02-27T04:19:38.752Z,0.34
2019-02-27T04:20:33.170Z,0.31
2019-02-27T04:21:33.205Z,0.24
2019-02-27T04:22:36.562Z,0.13
2019-02-27T04:23:33.162Z,0.10
2019-02-27T04:24:33.145Z,0.02
2019-02-27T04:25:33.134Z,0.10
2019-02-27T04:26:33.161Z,0.15
2019-02-27T04:27:33.120Z,0.12
2019-02-27T04:28:33.150Z,0.09
2019-02-27T04:29:33.112Z,0.09
2019-02-27T04:30:33.110Z,0.07
2019-02-27T04:31:33.134Z,0.09
2019-02-27T04:32:33.093Z,0.09
2019-02-27T04:33:33.120Z,0.10
2019-02-27T04:34:33.750Z,-0.04
2019-02-27T04:35:34.306Z,0.07
2019-02-27T04:36:33.065Z,0.02
2019-02-27T04:37:33.094Z,-0.09
2019-02-27T04:38:33.064Z,-0.13
2019-02-27T04:39:33.081Z,-0.19
2019-02-27T04:40:33.037Z,-0.19
2019-02-27T04:41:33.033Z,-0.23
2019-02-27T04:42:33.064Z,-0.18
2019-02-27T04:43:33.020Z,-0.26
2019-02-27T04:44:33.012Z,-0.23
2019-02-27T04:45:33.007Z,-0.26
2019-02-27T04:46:33.003Z,-0.15
2019-02-27T04:47:33.029Z,-0.12
2019-02-27T04:48:33.024Z,-0.16
2019-02-27T04:49:34.760Z,-0.11
2019-02-27T04:50:32.982Z,-0.08
2019-02-27T04:51:32.970Z,0.03
2019-02-27T04:52:33.002Z,-0.09
2019-02-27T04:53:32.954Z,-0.06
2019-02-27T04:54:34.976Z,-0.01
2019-02-27T04:55:32.944Z,0.00
2019-02-27T04:56:32.936Z,0.00
2019-02-27T04:57:33.776Z,0.00
2019-02-27T04:58:32.931Z,-0.09
2019-02-27T04:59:32.922Z,-0.04
2019-02-27T05:00:32.918Z,0.07
2019-02-27T05:01:36.417Z,0.05
2019-02-27T05:02:32.935Z,0.10
2019-02-27T05:03:32.940Z,-0.05
2019-02-27T05:04:35.153Z,-0.01
2019-02-27T05:05:32.880Z,-0.01
2019-02-27T05:06:32.877Z,-0.04
2019-02-27T05:07:32.900Z,-0.05
2019-02-27T05:08:32.866Z,-0.09
2019-02-27T05:09:34.017Z,-0.09
2019-02-27T05:10:33.847Z,-0.16
2019-02-27T05:11:32.839Z,-0.24
2019-02-27T05:12:32.868Z,-0.23
2019-02-27T05:13:34.518Z,-0.23
2019-02-27T05:14:32.820Z,-0.15
2019-02-27T05:15:32.819Z,-0.23
2019-02-27T05:16:32.810Z,-0.33
2019-02-27T05:17:32.838Z,-0.24
2019-02-27T05:18:32.836Z,-0.18
2019-02-27T05:19:36.881Z,-0.19
2019-02-27T05:20:32.783Z,-0.08
2019-02-27T05:21:32.774Z,-0.04
2019-02-27T05:22:32.809Z,-0.08
2019-02-27T05:23:33.575Z,0.06
2019-02-27T05:24:32.755Z,-0.08
2019-02-27T05:25:32.758Z,-0.18
2019-02-27T05:26:32.744Z,-0.19
2019-02-27T05:27:32.772Z,-0.11
2019-02-27T05:28:34.960Z,-0.12
2019-02-27T05:29:35.184Z,-0.04
2019-02-27T05:30:32.722Z,-0.01
2019-02-27T05:31:32.709Z,0.06
2019-02-27T05:32:32.743Z,0.13
2019-02-27T05:33:35.804Z,0.10
2019-02-27T05:34:32.693Z,0.09
2019-02-27T05:35:32.687Z,0.12
2019-02-27T05:36:32.716Z,0.10
2019-02-27T05:37:32.676Z,0.12
2019-02-27T05:38:32.703Z,0.13
2019-02-27T05:39:33.858Z,0.13
2019-02-27T05:40:32.659Z,0.09
2019-02-27T05:41:33.278Z,0.03
2019-02-27T05:42:32.656Z,0.07
2019-02-27T05:43:32.672Z,0.10
2019-02-27T05:44:32.662Z,0.12
2019-02-27T05:45:32.623Z,0.25
2019-02-27T05:46:32.615Z,0.20
2019-02-27T05:47:32.608Z,0.23
2019-02-27T05:48:32.640Z,0.21
2019-02-27T05:49:32.597Z,0.09
2019-02-27T05:50:34.340Z,0.20
2019-02-27T05:51:32.583Z,0.15
2019-02-27T05:52:32.578Z,0.18
2019-02-27T05:53:32.608Z,0.16
2019-02-27T05:54:32.933Z,0.23
2019-02-27T05:55:32.559Z,0.25
2019-02-27T05:56:32.551Z,0.33
2019-02-27T05:57:32.544Z,0.33
2019-02-27T05:58:32.574Z,0.30
2019-02-27T05:59:32.530Z,0.27
2019-02-27T06:00:32.527Z,0.27
2019-02-27T06:01:32.553Z,0.24
2019-02-27T06:02:32.520Z,0.31
2019-02-27T06:03:32.542Z,0.23
2019-02-27T06:04:34.385Z,0.16
2019-02-27T06:05:33.694Z,0.09
2019-02-27T06:06:32.486Z,0.16
2019-02-27T06:07:32.483Z,0.16
2019-02-27T06:08:35.150Z,0.16
2019-02-27T06:09:32.471Z,0.21
2019-02-27T06:10:32.467Z,0.13
2019-02-27T06:11:33.211Z,0.10
2019-02-27T06:12:32.451Z,0.16
2019-02-27T06:13:32.486Z,0.05
2019-02-27T06:14:32.439Z,-0.01
2019-02-27T06:15:32.429Z,-0.06
2019-02-27T06:16:37.113Z,0.00
2019-02-27T06:17:42.926Z,-0.01
2019-02-27T06:18:32.445Z,-0.08
2019-02-27T06:19:33.624Z,0.07
2019-02-27T06:20:32.402Z,0.09
2019-02-27T06:21:32.397Z,0.12
2019-02-27T06:22:32.387Z,0.12
2019-02-27T06:23:32.412Z,0.09
2019-02-27T06:24:32.375Z,0.18
2019-02-27T06:25:32.366Z,0.27
2019-02-27T06:26:32.952Z,0.25
2019-02-27T06:27:32.354Z,0.30
2019-02-27T06:28:32.385Z,0.36
2019-02-27T06:29:32.341Z,0.36
2019-02-27T06:30:32.339Z,0.34
2019-02-27T06:31:36.815Z,0.33
2019-02-27T06:32:32.321Z,0.34
2019-02-27T06:33:32.356Z,0.36
2019-02-27T06:34:32.311Z,0.45
2019-02-27T06:35:34.260Z,0.41
2019-02-27T06:36:32.300Z,0.42
2019-02-27T06:37:32.293Z,0.52
2019-02-27T06:38:32.321Z,0.58
2019-02-27T06:39:34.411Z,0.51
2019-02-27T06:40:32.272Z,0.57
2019-02-27T06:41:32.271Z,0.57
2019-02-27T06:42:32.327Z,0.60
2019-02-27T06:43:32.292Z,0.60
2019-02-27T06:44:32.290Z,0.62
2019-02-27T06:45:32.278Z,0.62
2019-02-27T06:46:32.239Z,0.71
2019-02-27T06:47:33.000Z,0.72
2019-02-27T06:48:32.264Z,0.76
2019-02-27T06:49:32.221Z,0.80
2019-02-27T06:50:32.212Z,1.03
2019-02-27T06:51:33.377Z,1.43
2019-02-27T06:52:32.200Z,1.98
2019-02-27T06:53:32.196Z,2.40
2019-02-27T06:54:32.229Z,2.82
2019-02-27T06:55:33.802Z,3.33
2019-02-27T06:56:32.180Z,3.62
2019-02-27T06:57:32.177Z,4.01
2019-02-27T06:58:32.170Z,4.14
2019-02-27T06:59:32.200Z,4.47
2019-02-27T07:00:35.910Z,4.70
2019-02-27T07:01:32.162Z,4.99
2019-02-27T07:02:32.154Z,5.41
2019-02-27T07:03:32.976Z,5.60
2019-02-27T07:04:32.222Z,5.92
2019-02-27T07:05:32.144Z,6.00
2019-02-27T07:06:32.137Z,6.36
2019-02-27T07:07:32.134Z,6.48
2019-02-27T07:08:32.127Z,6.68
2019-02-27T07:09:32.160Z,6.89
2019-02-27T07:10:32.131Z,6.90
2019-02-27T07:11:32.119Z,6.36
2019-02-27T07:12:32.120Z,5.98
2019-02-27T07:13:32.127Z,5.93
2019-02-27T07:14:32.148Z,5.98
2019-02-27T07:15:32.147Z,6.30
2019-02-27T07:16:32.108Z,6.65
2019-02-27T07:17:32.455Z,6.94
2019-02-27T07:18:32.107Z,6.81
2019-02-27T07:19:32.140Z,6.43
2019-02-27T07:20:32.099Z,6.19
2019-02-27T07:21:32.835Z,6.04
2019-02-27T07:22:32.105Z,6.22
2019-02-27T07:23:32.098Z,6.53
2019-02-27T07:24:33.729Z,6.90
2019-02-27T07:25:32.093Z,7.29
2019-02-27T07:26:32.094Z,8.00
2019-02-27T07:27:32.090Z,8.42
2019-02-27T07:28:32.091Z,8.88
2019-02-27T07:29:32.146Z,9.27
2019-02-27T07:30:32.125Z,9.53
2019-02-27T07:31:32.091Z,9.82
2019-02-27T07:32:32.176Z,10.00
2019-02-27T07:33:32.090Z,9.94
2019-02-27T07:34:32.132Z,9.91
2019-02-27T07:35:32.090Z,9.64
2019-02-27T07:36:32.100Z,9.56
2019-02-27T07:37:32.098Z,9.34
2019-02-27T07:38:32.096Z,9.21
2019-02-27T07:39:32.750Z,8.91
2019-02-27T07:40:32.097Z,8.73
2019-02-27T07:41:32.099Z,8.76
2019-02-27T07:42:32.627Z,8.90
2019-02-27T07:43:32.095Z,8.72
2019-02-27T07:44:32.248Z,8.91
2019-02-27T07:45:32.107Z,9.13
2019-02-27T07:46:32.105Z,9.31
2019-02-27T07:47:32.101Z,9.60
2019-02-27T07:48:32.103Z,9.79
2019-02-27T07:49:32.159Z,9.99
2019-02-27T07:50:32.685Z,10.34
2019-02-27T07:51:32.106Z,10.00
2019-02-27T07:52:32.630Z,9.73
2019-02-27T07:53:32.114Z,9.38
2019-02-27T07:54:32.144Z,9.28
2019-02-27T07:55:32.151Z,9.10
2019-02-27T07:56:32.118Z,8.88
2019-02-27T07:57:32.124Z,8.55
2019-02-27T07:58:33.798Z,8.54
2019-02-27T07:59:32.162Z,8.30
2019-02-27T08:00:32.124Z,8.26
2019-02-27T08:01:32.168Z,8.65
2019-02-27T08:02:33.727Z,8.63
2019-02-27T08:03:32.135Z,8.65
2019-02-27T08:04:32.180Z,8.60
2019-02-27T08:05:32.145Z,8.57
2019-02-27T08:06:32.146Z,8.94
2019-02-27T08:07:32.189Z,9.66
2019-02-27T08:08:32.152Z,10.34
2019-02-27T08:09:32.194Z,10.37
2019-02-27T08:10:32.169Z,10.60
2019-02-27T08:11:32.166Z,11.06
2019-02-27T08:12:32.167Z,11.44
2019-02-27T08:13:32.174Z,11.03
2019-02-27T08:14:37.051Z,10.98
2019-02-27T08:15:32.218Z,10.43
2019-02-27T08:16:32.186Z,9.94
2019-02-27T08:17:32.193Z,9.66
2019-02-27T08:18:36.471Z,10.14
2019-02-27T08:19:32.203Z,11.19
2019-02-27T08:20:32.244Z,11.97
2019-02-27T08:21:32.241Z,12.41
2019-02-27T08:22:32.224Z,12.44
2019-02-27T08:23:32.903Z,11.50
2019-02-27T08:24:33.683Z,10.92
2019-02-27T08:25:32.243Z,11.24
2019-02-27T08:26:32.280Z,11.97
2019-02-27T08:27:32.255Z,12.59
2019-02-27T08:28:32.263Z,13.22
2019-02-27T08:29:32.270Z,13.67
2019-02-27T08:30:32.323Z,13.69
2019-02-27T08:31:32.278Z,13.98
2019-02-27T08:32:34.489Z,14.02
2019-02-27T08:33:32.303Z,13.99
2019-02-27T08:34:32.307Z,13.04
2019-02-27T08:35:32.344Z,12.48
2019-02-27T08:36:32.319Z,12.27
2019-02-27T08:37:32.329Z,11.97
2019-02-27T08:38:32.369Z,12.20
2019-02-27T08:39:32.337Z,12.66
2019-02-27T08:40:32.380Z,12.63
2019-02-27T08:41:32.355Z,12.70
2019-02-27T08:42:36.817Z,12.71
2019-02-27T08:43:32.372Z,12.41
2019-02-27T08:44:32.417Z,12.09
2019-02-27T08:45:32.431Z,11.89
2019-02-27T08:46:36.724Z,11.83
2019-02-27T08:47:33.665Z,12.15
2019-02-27T08:48:32.417Z,12.74
2019-02-27T08:49:32.428Z,13.70
2019-02-27T08:50:32.485Z,14.17
2019-02-27T08:51:32.480Z,14.84
2019-02-27T08:52:32.454Z,15.33
2019-02-27T08:53:34.450Z,15.67
2019-02-27T08:54:33.164Z,15.78
2019-02-27T08:55:32.522Z,15.94
2019-02-27T08:56:32.494Z,15.97
2019-02-27T08:57:32.507Z,16.30
2019-02-27T08:58:33.049Z,16.20
2019-02-27T08:59:32.525Z,16.34
2019-02-27T09:00:32.581Z,16.55
2019-02-27T09:01:32.549Z,16.40
2019-02-27T09:02:32.556Z,16.53
2019-02-27T09:03:36.169Z,16.73
2019-02-27T09:04:32.577Z,16.88
2019-02-27T09:05:32.624Z,17.20
2019-02-27T09:06:32.642Z,17.15
2019-02-27T09:07:33.963Z,17.28
2019-02-27T09:08:32.627Z,16.92
2019-02-27T09:09:32.636Z,16.90
2019-02-27T09:10:32.662Z,16.75
2019-02-27T09:11:32.697Z,16.56
2019-02-27T09:12:32.670Z,16.25
2019-02-27T09:13:32.684Z,16.30
2019-02-27T09:14:33.313Z,15.81
2019-02-27T09:15:32.707Z,15.30
2019-02-27T09:16:32.757Z,15.19
2019-02-27T09:17:32.730Z,15.33
2019-02-27T09:18:33.389Z,15.57
2019-02-27T09:19:32.753Z,15.93
2019-02-27T09:20:32.765Z,16.04
2019-02-27T09:21:32.816Z,16.14
2019-02-27T09:22:33.872Z,16.44
2019-02-27T09:23:32.799Z,16.85
2019-02-27T09:24:32.848Z,16.60
2019-02-27T09:25:32.824Z,16.52
2019-02-27T09:26:35.990Z,16.68
2019-02-27T09:27:33.015Z,16.86
2019-02-27T09:28:32.861Z,16.93
2019-02-27T09:29:32.872Z,17.14
2019-02-27T09:30:32.885Z,17.43
2019-02-27T09:31:34.701Z,17.66
2019-02-27T09:32:32.944Z,17.46
2019-02-27T09:33:38.699Z,17.36
2019-02-27T09:34:32.968Z,17.33
2019-02-27T09:35:38.299Z,17.55
2019-02-27T09:36:32.959Z,17.81
2019-02-27T09:37:33.009Z,17.97
2019-02-27T09:38:32.987Z,18.02
2019-02-27T09:39:35.027Z,17.95
2019-02-27T09:40:33.010Z,18.27
2019-02-27T09:41:33.020Z,18.43
2019-02-27T09:42:33.076Z,18.47
2019-02-27T09:43:33.063Z,18.25
2019-02-27T09:44:36.400Z,18.28
2019-02-27T09:45:34.691Z,18.54
2019-02-27T09:46:33.089Z,18.47
2019-02-27T09:47:33.138Z,18.59
2019-02-27T09:48:33.484Z,18.79
2019-02-27T09:49:33.127Z,18.91
2019-02-27T09:50:33.145Z,19.29
2019-02-27T09:51:33.157Z,19.68
2019-02-27T09:52:33.208Z,19.75
2019-02-27T09:53:33.913Z,19.98
2019-02-27T09:54:33.977Z,19.40
2019-02-27T09:55:33.211Z,18.82
2019-02-27T09:56:33.228Z,17.40
2019-02-27T09:57:35.258Z,16.34
2019-02-27T09:58:33.297Z,16.86
2019-02-27T09:59:33.275Z,16.92
2019-02-27T10:00:33.436Z,17.46
2019-02-27T10:01:35.211Z,17.62
2019-02-27T10:02:33.321Z,18.24
2019-02-27T10:03:33.383Z,18.50
2019-02-27T10:04:33.354Z,18.03
2019-02-27T10:05:36.391Z,18.13
2019-02-27T10:06:33.384Z,18.57
2019-02-27T10:07:33.400Z,19.31
2019-02-27T10:08:33.453Z,20.02
2019-02-27T10:09:34.868Z,20.24
2019-02-27T10:10:33.448Z,20.56
2019-02-27T10:11:33.464Z,20.83
2019-02-27T10:12:33.481Z,21.08
2019-02-27T10:13:35.440Z,21.35
2019-02-27T10:14:33.632Z,21.36
2019-02-27T10:15:34.448Z,20.98
2019-02-27T10:16:34.867Z,20.77
2019-02-27T10:17:33.571Z,20.41
2019-02-27T10:18:33.628Z,19.94
2019-02-27T10:19:33.605Z,19.11
2019-02-27T10:20:36.868Z,18.72
2019-02-27T10:21:33.658Z,19.50
2019-02-27T10:22:33.656Z,20.20
2019-02-27T10:23:33.712Z,20.69
2019-02-27T10:24:33.699Z,21.11
2019-02-27T10:25:33.711Z,21.53
2019-02-27T10:26:33.732Z,21.36
2019-02-27T10:27:33.757Z,21.69
2019-02-27T10:28:38.777Z,22.12
2019-02-27T10:29:33.845Z,22.09
2019-02-27T10:30:33.806Z,21.60
2019-02-27T10:31:33.879Z,21.57
2019-02-27T10:32:36.418Z,21.64
2019-02-27T10:33:33.908Z,21.72
2019-02-27T10:34:33.990Z,22.19
2019-02-27T10:35:34.923Z,22.16
2019-02-27T10:36:38.248Z,22.13
2019-02-27T10:37:33.961Z,22.10
2019-02-27T10:38:40.056Z,22.06
2019-02-27T10:39:36.918Z,22.27
2019-02-27T10:40:34.010Z,22.53
2019-02-27T10:41:34.016Z,22.82
2019-02-27T10:42:34.081Z,22.78
2019-02-27T10:43:34.092Z,22.06
2019-02-27T10:44:34.534Z,22.06
2019-02-27T10:45:34.118Z,22.16
2019-02-27T10:46:34.119Z,22.39
2019-02-27T10:47:36.250Z,22.68
2019-02-27T10:48:34.197Z,22.99
2019-02-27T10:49:34.209Z,23.19
2019-02-27T10:50:35.395Z,23.32
2019-02-27T10:51:34.246Z,23.58
2019-02-27T10:52:34.232Z,23.46
2019-02-27T10:53:34.298Z,23.09
2019-02-27T10:54:39.918Z,23.08
2019-02-27T10:55:34.292Z,23.07
2019-02-27T10:56:34.317Z,22.77
2019-02-27T10:57:38.246Z,22.90
2019-02-27T10:58:34.394Z,23.09
2019-02-27T10:59:34.415Z,23.02
2019-02-27T11:00:34.396Z,23.04
2019-02-27T11:01:36.437Z,23.27
2019-02-27T11:02:34.438Z,23.43
2019-02-27T11:03:34.495Z,23.62
2019-02-27T11:04:36.339Z,23.72
2019-02-27T11:05:34.494Z,23.76
2019-02-27T11:06:37.647Z,23.71
2019-02-27T11:07:34.534Z,23.80
2019-02-27T11:08:34.591Z,23.90
2019-02-27T11:09:34.608Z,24.23
2019-02-27T11:10:34.619Z,24.57
2019-02-27T11:11:34.613Z,24.38
2019-02-27T11:12:34.677Z,24.47
2019-02-27T11:13:35.621Z,24.14
2019-02-27T11:14:35.903Z,23.85
2019-02-27T11:15:35.874Z,23.95
2019-02-27T11:16:34.820Z,23.89
2019-02-27T11:17:34.743Z,23.95
2019-02-27T11:18:34.761Z,23.90
2019-02-27T11:19:35.028Z,23.82
2019-02-27T11:20:34.802Z,23.64
2019-02-27T11:21:34.858Z,23.64
2019-02-27T11:22:34.847Z,23.72
2019-02-27T11:23:34.860Z,23.89
2019-02-27T11:24:34.914Z,24.17
2019-02-27T11:25:34.904Z,24.12
2019-02-27T11:26:34.923Z,24.23
2019-02-27T11:27:36.375Z,24.16
2019-02-27T11:28:34.962Z,24.00
2019-02-27T11:29:35.027Z,24.02
2019-02-27T11:30:36.828Z,24.16
2019-02-27T11:31:35.427Z,24.35
2019-02-27T11:32:35.047Z,24.59
2019-02-27T11:33:35.093Z,24.90
2019-02-27T11:34:35.129Z,24.85
2019-02-27T11:35:35.113Z,24.64
2019-02-27T11:36:35.164Z,24.32
2019-02-27T11:37:35.147Z,24.41
2019-02-27T11:38:35.171Z,24.31
2019-02-27T11:39:35.227Z,24.41
2019-02-27T11:40:35.212Z,24.69
2019-02-27T11:41:35.231Z,24.97
2019-02-27T11:42:35.251Z,24.94
2019-02-27T11:43:37.900Z,24.90
2019-02-27T11:44:35.408Z,25.12
2019-02-27T11:45:35.315Z,24.95
2019-02-27T11:46:38.212Z,24.97
2019-02-27T11:47:35.355Z,25.13
2019-02-27T11:48:35.375Z,25.02
2019-02-27T11:49:36.278Z,25.19
2019-02-27T11:50:35.426Z,25.12
2019-02-27T11:51:35.442Z,25.02
2019-02-27T11:52:35.474Z,24.68
2019-02-27T11:53:36.002Z,24.56
2019-02-27T11:54:35.540Z,24.38
2019-02-27T11:55:35.523Z,24.24
2019-02-27T11:56:35.547Z,24.39
2019-02-27T11:57:35.571Z,24.16
2019-02-27T11:58:38.528Z,24.29
2019-02-27T11:59:35.650Z,24.60
2019-02-27T12:00:35.670Z,23.94
2019-02-27T12:01:35.653Z,24.39
2019-02-27T12:02:37.779Z,24.60
2019-02-27T12:03:35.691Z,24.79
2019-02-27T12:04:35.748Z,24.85
2019-02-27T12:05:35.738Z,25.07
2019-02-27T12:06:35.758Z,25.09
2019-02-27T12:07:35.776Z,25.32
2019-02-27T12:08:35.797Z,25.22
2019-02-27T12:09:35.923Z,24.94
2019-02-27T12:10:35.882Z,24.82
2019-02-27T12:11:35.859Z,25.02
2019-02-27T12:12:35.884Z,25.06
2019-02-27T12:13:35.907Z,25.25
2019-02-27T12:14:35.958Z,25.24
2019-02-27T12:15:35.948Z,25.22
2019-02-27T12:16:36.004Z,25.00
2019-02-27T12:17:35.993Z,24.75
2019-02-27T12:18:36.009Z,24.79
2019-02-27T12:19:36.068Z,24.85
2019-02-27T12:20:36.054Z,24.64
2019-02-27T12:21:36.114Z,24.87
2019-02-27T12:22:36.129Z,24.56
2019-02-27T12:23:36.113Z,24.31
2019-02-27T12:24:36.136Z,24.19
2019-02-27T12:25:36.190Z,24.00
2019-02-27T12:26:37.505Z,23.70
2019-02-27T12:27:48.259Z,23.80
2019-02-27T12:28:36.255Z,23.80
2019-02-27T12:29:36.240Z,23.97
2019-02-27T12:30:37.462Z,24.24
2019-02-27T12:31:36.279Z,24.67
2019-02-27T12:32:36.293Z,24.83
2019-02-27T12:33:36.312Z,24.60
2019-02-27T12:34:37.044Z,24.07
2019-02-27T12:35:36.390Z,24.10
2019-02-27T12:36:36.374Z,24.16
2019-02-27T12:37:36.395Z,24.08
2019-02-27T12:38:36.421Z,24.29
2019-02-27T12:39:36.432Z,24.38
2019-02-27T12:40:36.490Z,24.35
2019-02-27T12:41:36.472Z,24.47
2019-02-27T12:42:37.553Z,24.77
2019-02-27T12:43:36.509Z,24.87
2019-02-27T12:44:36.526Z,24.42
2019-02-27T12:45:36.591Z,23.90
2019-02-27T12:46:37.121Z,23.49
2019-02-27T12:47:37.649Z,23.55
2019-02-27T12:48:36.603Z,23.80
2019-02-27T12:49:36.624Z,23.77
2019-02-27T12:50:36.678Z,23.22
2019-02-27T12:51:38.292Z,23.49
2019-02-27T12:52:36.681Z,23.89
2019-02-27T12:53:36.700Z,24.05
2019-02-27T12:54:36.815Z,24.00
2019-02-27T12:55:36.770Z,23.86
2019-02-27T12:56:41.580Z,23.64
2019-02-27T12:57:36.773Z,23.46
2019-02-27T12:58:36.798Z,23.40
2019-02-27T12:59:36.807Z,23.27
2019-02-27T13:00:36.862Z,23.04
2019-02-27T13:01:36.882Z,23.22
2019-02-27T13:02:36.861Z,23.31
2019-02-27T13:03:36.886Z,22.49
2019-02-27T13:04:36.902Z,22.39
2019-02-27T13:05:36.949Z,22.83
2019-02-27T13:06:37.417Z,23.04